Time,TemperatureF,DewpointF,PressureIn,WindDirection,WindDirectionDegrees,WindSpeedMPH,WindSpeedGustMPH,Humidity,HourlyPrecipIn,Conditions,Clouds,dailyrainin,SoftwareType,DateUTC
2013-11-22 00:00:00,73.3,70.8,30.02,SE,137,0.0,1.0,92,0.00,,SKC,0.00,VWS V14.01,2013-11-22 06:00:00,
2013-11-22 00:01:00,73.3,70.8,30.02,SE,137,0.0,3.0,92,0.00,,SKC,0.00,VWS V14.01,2013-11-22 06:01:00,
2013-11-22 00:06:00,73.4,70.9,30.02,SE,137,1.0,5.0,92,0.00,,SKC,0.00,VWS V14.01,2013-11-22 06:06:00,
2013-11-22 00:10:00,73.3,70.8,30.02,SE,137,0.0,3.0,92,0.00,,SKC,0.00,VWS V14.01,2013-11-22 06:10:00,
2013-11-22 00:11:00,73.4,70.9,30.02,SE,137,0.0,5.0,92,0.00,,SKC,0.00,VWS V14.01,2013-11-22 06:11:00,
2013-11-22 00:16:00,73.4,70.9,30.01,SE,137,0.0,0.0,92,0.00,,SKC,0.00,VWS V14.01,2013-11-22 06:16:00,
2013-11-22 00:20:00,73.4,70.9,30.02,SE,137,0.0,5.0,92,0.00,,SKC,0.00,VWS V14.01,2013-11-22 06:20:00,
2013-11-22 00:21:00,73.3,70.8,30.01,SE,137,0.0,0.0,92,0.00,,SKC,0.00,VWS V14.01,2013-11-22 06:21:00,
2013-11-22 00:26:00,73.3,70.8,30.01,SE,137,0.0,4.0,92,0.00,,SKC,0.00,VWS V14.01,2013-11-22 06:26:00,
2013-11-22 00:30:00,73.3,70.8,30.01,SE,137,4.0,4.0,92,0.00,,SKC,0.00,VWS V14.01,2013-11-22 06:30:00,
2013-11-22 00:31:00,73.3,70.8,30.01,SE,137,0.0,4.0,92,0.00,,SKC,0.00,VWS V14.01,2013-11-22 06:31:00,
2013-11-22 00:36:00,73.2,70.7,30.01,SE,137,0.0,0.0,92,0.00,,SKC,0.00,VWS V14.01,2013-11-22 06:36:00,
2013-11-22 00:40:00,73.3,70.8,30.01,SE,137,0.0,4.0,92,0.00,,SKC,0.00,VWS V14.01,2013-11-22 06:40:00,
2013-11-22 00:41:00,73.1,70.6,30.01,SE,137,0.0,0.0,92,0.00,,SKC,0.00,VWS V14.01,2013-11-22 06:41:00,
2013-11-22 00:46:00,73.1,70.6,30.01,SE,137,0.0,0.0,92,0.00,,SKC,0.00,VWS V14.01,2013-11-22 06:46:00,
2013-11-22 00:50:00,73.1,70.6,30.01,SE,137,0.0,0.0,92,0.00,,SKC,0.00,VWS V14.01,2013-11-22 06:50:00,
2013-11-22 00:51:00,73.1,70.6,30.01,SE,137,0.0,0.0,92,0.00,,SKC,0.00,VWS V14.01,2013-11-22 06:51:00,
2013-11-22 00:56:00,73.1,71.0,30.01,SE,137,0.0,0.0,93,0.00,,SKC,0.00,VWS V14.01,2013-11-22 06:56:00,
2013-11-22 01:00:00,73.1,71.0,30.01,SE,137,0.0,0.0,93,0.00,,SKC,0.00,VWS V14.01,2013-11-22 07:00:00,
2013-11-22 01:01:00,73.0,70.9,30.02,SE,137,0.0,0.0,93,0.00,,SKC,0.00,VWS V14.01,2013-11-22 07:01:00,
2013-11-22 01:06:00,73.0,70.9,30.02,SE,137,0.0,0.0,93,0.00,,SKC,0.00,VWS V14.01,2013-11-22 07:06:00,
2013-11-22 01:10:00,73.0,70.9,30.02,SE,137,0.0,0.0,93,0.00,,SKC,0.00,VWS V14.01,2013-11-22 07:10:00,
2013-11-22 01:11:00,73.0,70.9,30.01,SE,137,0.0,0.0,93,0.00,,SKC,0.00,VWS V14.01,2013-11-22 07:11:00,
2013-11-22 01:16:00,72.9,70.8,30.01,SE,137,0.0,0.0,93,0.00,,SKC,0.00,VWS V14.01,2013-11-22 07:16:00,
2013-11-22 01:20:00,73.0,70.9,30.01,SE,137,0.0,0.0,93,0.00,,SKC,0.00,VWS V14.01,2013-11-22 07:20:00,
2013-11-22 01:21:00,72.9,70.8,30.01,SE,137,0.0,0.0,93,0.00,,SKC,0.00,VWS V14.01,2013-11-22 07:21:00,
2013-11-22 01:26:00,72.9,70.8,30.01,SE,137,0.0,0.0,93,0.00,,SKC,0.00,VWS V14.01,2013-11-22 07:26:00,
2013-11-22 01:30:00,72.9,70.8,30.01,SE,137,0.0,0.0,93,0.00,,SKC,0.00,VWS V14.01,2013-11-22 07:30:00,
2013-11-22 01:31:00,72.9,70.8,30.02,SE,137,0.0,0.0,93,0.00,,SKC,0.00,VWS V14.01,2013-11-22 07:31:00,
2013-11-22 01:36:00,72.9,70.8,30.01,SE,137,0.0,0.0,93,0.00,,SKC,0.00,VWS V14.01,2013-11-22 07:36:00,
2013-11-22 01:40:00,72.9,70.8,30.02,SE,137,0.0,0.0,93,0.00,,SKC,0.00,VWS V14.01,2013-11-22 07:40:00,
2013-11-22 01:41:00,72.9,70.8,30.01,SE,137,0.0,0.0,93,0.00,,SKC,0.00,VWS V14.01,2013-11-22 07:41:00,
2013-11-22 01:46:00,72.9,70.8,30.01,SE,137,0.0,0.0,93,0.00,,SKC,0.00,VWS V14.01,2013-11-22 07:46:00,
2013-11-22 01:50:00,72.9,70.8,30.02,SE,137,0.0,0.0,93,0.00,,SKC,0.00,VWS V14.01,2013-11-22 07:50:00,
2013-11-22 01:51:00,72.8,70.7,30.02,SE,137,0.0,0.0,93,0.00,,SKC,0.00,VWS V14.01,2013-11-22 07:51:00,
2013-11-22 01:56:00,72.8,70.7,30.02,SE,137,0.0,0.0,93,0.00,,SKC,0.00,VWS V14.01,2013-11-22 07:56:00,
2013-11-22 02:00:00,72.8,70.7,30.02,SE,137,0.0,0.0,93,0.00,,SKC,0.00,VWS V14.01,2013-11-22 08:00:00,
2013-11-22 02:01:00,72.8,70.7,30.02,SE,137,0.0,0.0,93,0.00,,SKC,0.00,VWS V14.01,2013-11-22 08:01:00,
2013-11-22 02:06:00,72.8,70.7,30.02,SE,137,0.0,0.0,93,0.00,,SKC,0.00,VWS V14.01,2013-11-22 08:06:00,
2013-11-22 02:10:00,72.8,70.7,30.02,SE,137,0.0,0.0,93,0.00,,SKC,0.00,VWS V14.01,2013-11-22 08:10:00,
2013-11-22 02:11:00,72.8,70.7,30.02,SE,137,0.0,0.0,93,0.00,,SKC,0.00,VWS V14.01,2013-11-22 08:11:00,
2013-11-22 02:16:00,72.7,70.6,30.02,SE,137,0.0,0.0,93,0.00,,SKC,0.00,VWS V14.01,2013-11-22 08:16:00,
2013-11-22 02:20:00,72.7,70.6,30.02,SE,137,0.0,0.0,93,0.00,,SKC,0.00,VWS V14.01,2013-11-22 08:20:00,
2013-11-22 02:21:00,72.7,70.6,30.02,SE,137,0.0,0.0,93,0.00,,SKC,0.00,VWS V14.01,2013-11-22 08:21:00,
2013-11-22 02:26:00,72.7,70.6,30.02,SE,137,0.0,0.0,93,0.00,,SKC,0.00,VWS V14.01,2013-11-22 08:26:00,
2013-11-22 02:30:00,72.7,70.6,30.02,SE,137,0.0,0.0,93,0.00,,SKC,0.00,VWS V14.01,2013-11-22 08:30:00,
2013-11-22 02:31:00,72.7,70.6,30.02,SE,137,0.0,0.0,93,0.00,,SKC,0.00,VWS V14.01,2013-11-22 08:31:00,
2013-11-22 02:36:00,72.6,70.5,30.02,SE,137,0.0,0.0,93,0.00,,SKC,0.00,VWS V14.01,2013-11-22 08:36:00,
2013-11-22 02:40:00,72.6,70.5,30.02,SE,137,0.0,0.0,93,0.00,,SKC,0.00,VWS V14.01,2013-11-22 08:40:00,
2013-11-22 02:41:00,72.6,70.5,30.02,SE,137,0.0,0.0,93,0.00,,SKC,0.00,VWS V14.01,2013-11-22 08:41:00,
2013-11-22 02:46:00,72.6,70.5,30.02,SE,137,0.0,0.0,93,0.00,,SKC,0.00,VWS V14.01,2013-11-22 08:46:00,
2013-11-22 02:50:00,72.6,70.5,30.02,SE,137,0.0,0.0,93,0.00,,SKC,0.00,VWS V14.01,2013-11-22 08:50:00,
2013-11-22 02:51:00,72.5,70.4,30.02,SE,137,0.0,0.0,93,0.00,,SKC,0.00,VWS V14.01,2013-11-22 08:51:00,
2013-11-22 02:56:00,72.5,70.4,30.02,SE,137,0.0,0.0,93,0.00,,SKC,0.00,VWS V14.01,2013-11-22 08:56:00,
2013-11-22 03:00:00,72.5,70.4,30.02,SE,137,0.0,0.0,93,0.00,,SKC,0.00,VWS V14.01,2013-11-22 09:00:00,
2013-11-22 03:01:00,72.5,70.4,30.02,SE,137,0.0,0.0,93,0.00,,SKC,0.00,VWS V14.01,2013-11-22 09:01:00,
2013-11-22 03:06:00,72.4,70.6,30.02,SE,137,0.0,0.0,94,0.00,,SKC,0.00,VWS V14.01,2013-11-22 09:06:00,
2013-11-22 03:10:00,72.4,70.6,30.02,SE,137,0.0,0.0,94,0.00,,SKC,0.00,VWS V14.01,2013-11-22 09:10:00,
2013-11-22 03:11:00,72.4,70.6,30.02,SE,137,0.0,0.0,94,0.00,,SKC,0.00,VWS V14.01,2013-11-22 09:11:00,
2013-11-22 03:16:00,72.4,70.6,30.03,SE,137,0.0,0.0,94,0.00,,SKC,0.00,VWS V14.01,2013-11-22 09:16:00,
2013-11-22 03:20:00,72.4,70.6,30.02,SE,137,0.0,0.0,94,0.00,,SKC,0.00,VWS V14.01,2013-11-22 09:20:00,
2013-11-22 03:21:00,72.4,70.6,30.02,SE,137,0.0,0.0,94,0.00,,SKC,0.00,VWS V14.01,2013-11-22 09:21:00,
2013-11-22 03:26:00,72.3,70.5,30.02,SE,137,0.0,0.0,94,0.00,,SKC,0.00,VWS V14.01,2013-11-22 09:26:00,
2013-11-22 03:30:00,72.3,70.5,30.03,SE,137,0.0,0.0,94,0.00,,SKC,0.00,VWS V14.01,2013-11-22 09:30:00,
2013-11-22 03:31:00,72.3,70.5,30.03,SE,137,0.0,0.0,94,0.00,,SKC,0.00,VWS V14.01,2013-11-22 09:31:00,
2013-11-22 03:36:00,72.4,70.6,30.03,SE,137,0.0,0.0,94,0.00,,SKC,0.00,VWS V14.01,2013-11-22 09:36:00,
2013-11-22 03:40:00,72.4,70.6,30.03,SE,137,0.0,0.0,94,0.00,,SKC,0.00,VWS V14.01,2013-11-22 09:40:00,
2013-11-22 03:41:00,72.4,70.6,30.02,SE,137,0.0,0.0,94,0.00,,SKC,0.00,VWS V14.01,2013-11-22 09:41:00,
2013-11-22 03:46:00,72.5,70.7,30.02,SE,137,0.0,0.0,94,0.00,,SKC,0.00,VWS V14.01,2013-11-22 09:46:00,
2013-11-22 03:50:00,72.5,70.7,30.02,SE,137,0.0,0.0,94,0.00,,SKC,0.00,VWS V14.01,2013-11-22 09:50:00,
2013-11-22 03:51:00,72.5,70.7,30.02,SE,137,0.0,0.0,94,0.00,,SKC,0.00,VWS V14.01,2013-11-22 09:51:00,
2013-11-22 03:56:00,72.5,70.7,30.03,SE,137,0.0,0.0,94,0.00,,SKC,0.00,VWS V14.01,2013-11-22 09:56:00,
2013-11-22 04:00:00,72.5,70.7,30.02,SE,137,0.0,0.0,94,0.00,,SKC,0.00,VWS V14.01,2013-11-22 10:00:00,
2013-11-22 04:01:00,72.4,70.6,30.03,SE,137,0.0,0.0,94,0.00,,SKC,0.00,VWS V14.01,2013-11-22 10:01:00,
2013-11-22 04:06:00,72.4,70.6,30.03,SE,137,0.0,0.0,94,0.00,,SKC,0.00,VWS V14.01,2013-11-22 10:06:00,
2013-11-22 04:10:00,72.4,70.6,30.03,SE,137,0.0,0.0,94,0.00,,SKC,0.00,VWS V14.01,2013-11-22 10:10:00,
2013-11-22 04:11:00,72.4,70.6,30.04,SE,137,0.0,1.0,94,0.00,,SKC,0.00,VWS V14.01,2013-11-22 10:11:00,
2013-11-22 04:16:00,70.2,64.4,30.06,NNW,346,0.0,7.0,82,0.00,,SKC,0.00,VWS V14.01,2013-11-22 10:16:00,
2013-11-22 04:20:00,70.9,66.8,30.05,NNW,344,1.0,12.0,87,0.00,,SKC,0.00,VWS V14.01,2013-11-22 10:20:00,
2013-11-22 04:21:00,66.8,59.0,30.06,NNW,348,6.0,16.0,76,0.00,,SKC,0.00,VWS V14.01,2013-11-22 10:21:00,
2013-11-22 04:26:00,63.4,55.7,30.06,NNW,329,3.0,14.0,76,0.00,,SKC,0.00,VWS V14.01,2013-11-22 10:26:00,
2013-11-22 04:30:00,64.3,56.6,30.06,NNE,12,14.0,19.0,76,0.00,,SKC,0.00,VWS V14.01,2013-11-22 10:30:00,
2013-11-22 04:31:00,60.7,54.2,30.06,North,355,4.0,16.0,79,0.00,,SKC,0.00,VWS V14.01,2013-11-22 10:31:00,
2013-11-22 04:36:00,59.1,53.6,30.06,North,350,4.0,11.0,82,0.00,,SKC,0.00,VWS V14.01,2013-11-22 10:36:00,
2013-11-22 04:40:00,59.3,53.8,30.07,North,355,2.0,16.0,82,0.00,,SKC,0.00,VWS V14.01,2013-11-22 10:40:00,
2013-11-22 04:41:00,58.0,53.2,30.06,North,355,6.0,13.0,84,0.00,,SKC,0.00,VWS V14.01,2013-11-22 10:41:00,
2013-11-22 04:46:00,57.2,52.7,30.07,North,355,0.0,15.0,85,0.00,,SKC,0.00,VWS V14.01,2013-11-22 10:46:00,
2013-11-22 04:50:00,57.4,52.6,30.06,North,5,3.0,16.0,84,0.00,,SKC,0.00,VWS V14.01,2013-11-22 10:50:00,
2013-11-22 04:51:00,56.4,52.0,30.07,North,355,9.0,15.0,85,0.03,,SKC,0.03,VWS V14.01,2013-11-22 10:51:00,
2013-11-22 04:56:00,55.5,51.7,30.07,NNE,14,3.0,13.0,87,0.10,,SKC,0.10,VWS V14.01,2013-11-22 10:56:00,
2013-11-22 05:00:00,55.7,51.6,30.07,North,5,0.0,15.0,86,0.09,,SKC,0.09,VWS V14.01,2013-11-22 11:00:00,
2013-11-22 05:01:00,54.7,51.2,30.08,North,5,6.0,19.0,88,0.10,,SKC,0.10,VWS V14.01,2013-11-22 11:01:00,
2013-11-22 05:06:00,54.1,50.9,30.09,NNW,345,3.0,11.0,89,0.11,,SKC,0.11,VWS V14.01,2013-11-22 11:06:00,
2013-11-22 05:10:00,54.2,51.0,30.09,North,5,9.0,19.0,89,0.11,,SKC,0.11,VWS V14.01,2013-11-22 11:10:00,
2013-11-22 05:11:00,53.3,50.2,30.09,North,350,17.0,20.0,89,0.11,,SKC,0.11,VWS V14.01,2013-11-22 11:11:00,
2013-11-22 05:16:00,52.6,49.8,30.10,NNW,336,6.0,11.0,90,0.12,,SKC,0.12,VWS V14.01,2013-11-22 11:16:00,
2013-11-22 05:20:00,52.7,49.6,30.10,North,11,2.0,20.0,89,0.12,,SKC,0.12,VWS V14.01,2013-11-22 11:20:00,
2013-11-22 05:21:00,52.1,49.3,30.10,NNW,348,10.0,13.0,90,0.12,,SKC,0.12,VWS V14.01,2013-11-22 11:21:00,
2013-11-22 05:26:00,51.6,48.8,30.10,North,5,7.0,12.0,90,0.12,,SKC,0.12,VWS V14.01,2013-11-22 11:26:00,
2013-11-22 05:30:00,51.7,49.2,30.10,North,5,3.0,15.0,91,0.12,,SKC,0.12,VWS V14.01,2013-11-22 11:30:00,
2013-11-22 05:31:00,51.2,48.7,30.11,NNW,338,4.0,12.0,91,0.12,,SKC,0.12,VWS V14.01,2013-11-22 11:31:00,
2013-11-22 05:36:00,50.8,48.3,30.12,NNW,348,0.0,4.0,91,0.12,,SKC,0.12,VWS V14.01,2013-11-22 11:36:00,
2013-11-22 05:40:00,50.9,48.4,30.12,NNW,348,3.0,12.0,91,0.12,,SKC,0.12,VWS V14.01,2013-11-22 11:40:00,
2013-11-22 05:41:00,50.6,48.1,30.12,North,360,2.0,10.0,91,0.12,,SKC,0.12,VWS V14.01,2013-11-22 11:41:00,
2013-11-22 05:46:00,50.3,47.8,30.12,North,360,6.0,9.0,91,0.12,,SKC,0.12,VWS V14.01,2013-11-22 11:46:00,
2013-11-22 05:50:00,50.3,47.8,30.12,North,355,2.0,11.0,91,0.12,,SKC,0.12,VWS V14.01,2013-11-22 11:50:00,
2013-11-22 05:51:00,50.0,47.5,30.13,North,350,5.0,13.0,91,0.12,,SKC,0.12,VWS V14.01,2013-11-22 11:51:00,
2013-11-22 05:56:00,49.7,47.2,30.12,NNW,348,6.0,12.0,91,0.03,,SKC,0.12,VWS V14.01,2013-11-22 11:56:00,
2013-11-22 06:00:00,49.7,47.2,30.12,North,355,12.0,17.0,91,0.12,,SKC,0.12,VWS V14.01,2013-11-22 12:00:00,
2013-11-22 06:01:00,49.4,46.9,30.14,North,9,5.0,15.0,91,0.03,,SKC,0.12,VWS V14.01,2013-11-22 12:01:00,
2013-11-22 06:06:00,49.1,46.9,30.13,NNE,22,4.0,7.0,92,0.01,,SKC,0.12,VWS V14.01,2013-11-22 12:06:00,
2013-11-22 06:10:00,49.1,46.9,30.13,NE,53,1.0,15.0,92,0.03,,SKC,0.12,VWS V14.01,2013-11-22 12:10:00,
2013-11-22 06:11:00,48.8,46.6,30.14,NNW,348,5.0,13.0,92,0.02,,SKC,0.13,VWS V14.01,2013-11-22 12:11:00,
2013-11-22 06:16:00,48.6,46.4,30.14,NNW,343,0.0,6.0,92,0.01,,SKC,0.13,VWS V14.01,2013-11-22 12:16:00,
2013-11-22 06:20:00,48.7,46.5,30.14,North,349,0.0,13.0,92,0.02,,SKC,0.13,VWS V14.01,2013-11-22 12:20:00,
2013-11-22 06:21:00,48.5,46.3,30.14,North,360,0.0,10.0,92,0.01,,SKC,0.13,VWS V14.01,2013-11-22 12:21:00,
2013-11-22 06:26:00,48.3,46.1,30.15,NNW,346,2.0,9.0,92,0.01,,SKC,0.13,VWS V14.01,2013-11-22 12:26:00,
2013-11-22 06:30:00,48.3,46.1,30.14,North,349,0.0,11.0,92,0.01,,SKC,0.13,VWS V14.01,2013-11-22 12:30:00,
2013-11-22 06:31:00,48.0,45.8,30.15,NNW,346,4.0,13.0,92,0.01,,SKC,0.13,VWS V14.01,2013-11-22 12:31:00,
2013-11-22 06:36:00,47.7,45.5,30.16,North,360,4.0,9.0,92,0.01,,SKC,0.13,VWS V14.01,2013-11-22 12:36:00,
2013-11-22 06:40:00,47.8,45.6,30.16,North,5,2.0,13.0,92,0.01,,SKC,0.13,VWS V14.01,2013-11-22 12:40:00,
2013-11-22 06:41:00,47.4,45.2,30.16,North,5,0.0,9.0,92,0.01,,SKC,0.13,VWS V14.01,2013-11-22 12:41:00,
2013-11-22 06:46:00,47.3,45.4,30.16,North,5,1.0,10.0,93,0.01,,SKC,0.13,VWS V14.01,2013-11-22 12:46:00,
2013-11-22 06:50:00,47.4,45.5,30.16,NNE,17,3.0,10.0,93,0.01,,SKC,0.13,VWS V14.01,2013-11-22 12:50:00,
2013-11-22 06:51:00,47.2,45.0,30.16,NE,44,6.0,13.0,92,0.01,,SKC,0.13,VWS V14.01,2013-11-22 12:51:00,
2013-11-22 06:56:00,46.9,44.7,30.16,North,5,9.0,9.0,92,0.01,,SKC,0.13,VWS V14.01,2013-11-22 12:56:00,
2013-11-22 07:00:00,47.0,44.8,30.16,North,355,3.0,13.0,92,0.01,,SKC,0.13,VWS V14.01,2013-11-22 13:00:00,
2013-11-22 07:01:00,46.8,44.6,30.16,NNE,30,4.0,13.0,92,0.01,,SKC,0.13,VWS V14.01,2013-11-22 13:01:00,
2013-11-22 07:06:00,46.6,44.4,30.16,NNE,18,2.0,6.0,92,0.01,,SKC,0.13,VWS V14.01,2013-11-22 13:06:00,
2013-11-22 07:10:00,46.6,44.4,30.16,NNE,12,3.0,13.0,92,0.01,,SKC,0.13,VWS V14.01,2013-11-22 13:10:00,
2013-11-22 07:11:00,46.5,44.3,30.17,NNE,17,5.0,10.0,92,0.01,,SKC,0.13,VWS V14.01,2013-11-22 13:11:00,
2013-11-22 07:16:00,46.3,44.1,30.17,NE,45,5.0,10.0,92,0.00,,SKC,0.13,VWS V14.01,2013-11-22 13:16:00,
2013-11-22 07:20:00,46.3,44.1,30.17,NNE,25,8.0,10.0,92,0.01,,SKC,0.13,VWS V14.01,2013-11-22 13:20:00,
2013-11-22 07:21:00,46.1,43.9,30.18,NNE,16,7.0,10.0,92,0.00,,SKC,0.13,VWS V14.01,2013-11-22 13:21:00,
2013-11-22 07:26:00,46.0,43.8,30.18,NNW,346,10.0,12.0,92,0.00,,SKC,0.13,VWS V14.01,2013-11-22 13:26:00,
2013-11-22 07:30:00,46.0,44.1,30.18,North,5,0.0,11.0,93,0.00,,SKC,0.13,VWS V14.01,2013-11-22 13:30:00,
2013-11-22 07:31:00,45.9,44.0,30.18,North,11,1.0,17.0,93,0.00,,SKC,0.13,VWS V14.01,2013-11-22 13:31:00,
2013-11-22 07:36:00,45.8,43.9,30.18,North,5,4.0,11.0,93,0.00,,SKC,0.13,VWS V14.01,2013-11-22 13:36:00,
2013-11-22 07:40:00,45.8,43.9,30.18,NNW,344,9.0,17.0,93,0.00,,SKC,0.13,VWS V14.01,2013-11-22 13:40:00,
2013-11-22 07:41:00,45.7,43.8,30.19,NNE,26,6.0,14.0,93,0.00,,SKC,0.13,VWS V14.01,2013-11-22 13:41:00,
2013-11-22 07:46:00,45.5,43.3,30.19,NNE,19,4.0,10.0,92,0.00,,SKC,0.13,VWS V14.01,2013-11-22 13:46:00,
2013-11-22 07:50:00,45.5,43.3,30.19,NE,51,6.0,14.0,92,0.00,,SKC,0.13,VWS V14.01,2013-11-22 13:50:00,
2013-11-22 07:51:00,45.3,43.1,30.20,NNE,24,6.0,15.0,92,0.00,,SKC,0.13,VWS V14.01,2013-11-22 13:51:00,
2013-11-22 07:56:00,45.1,42.9,30.20,NNE,15,5.0,13.0,92,0.00,,SKC,0.13,VWS V14.01,2013-11-22 13:56:00,
2013-11-22 08:00:00,45.1,42.9,30.21,North,355,2.0,17.0,92,0.00,,SKC,0.13,VWS V14.01,2013-11-22 14:00:00,
2013-11-22 08:01:00,44.9,42.7,30.20,North,355,1.0,15.0,92,0.00,,SKC,0.13,VWS V14.01,2013-11-22 14:01:00,
2013-11-22 08:06:00,44.7,42.5,30.20,NNW,329,5.0,9.0,92,0.01,,SKC,0.14,VWS V14.01,2013-11-22 14:06:00,
2013-11-22 08:10:00,44.8,42.6,30.21,NNE,23,3.0,15.0,92,0.00,,SKC,0.13,VWS V14.01,2013-11-22 14:10:00,
2013-11-22 08:11:00,44.6,42.4,30.21,North,360,5.0,18.0,92,0.02,,SKC,0.15,VWS V14.01,2013-11-22 14:11:00,
2013-11-22 08:16:00,44.4,42.2,30.22,NNE,13,0.0,12.0,92,0.02,,SKC,0.15,VWS V14.01,2013-11-22 14:16:00,
2013-11-22 08:20:00,44.5,42.3,30.21,North,5,7.0,26.0,92,0.02,,SKC,0.15,VWS V14.01,2013-11-22 14:20:00,
2013-11-22 08:21:00,44.3,42.4,30.22,North,360,15.0,16.0,93,0.03,,SKC,0.16,VWS V14.01,2013-11-22 14:21:00,
2013-11-22 08:26:00,44.2,42.3,30.22,North,355,5.0,8.0,93,0.03,,SKC,0.16,VWS V14.01,2013-11-22 14:26:00,
2013-11-22 08:30:00,44.2,42.3,30.22,NNW,327,8.0,16.0,93,0.03,,SKC,0.16,VWS V14.01,2013-11-22 14:30:00,
2013-11-22 08:31:00,44.1,42.2,30.23,North,355,0.0,15.0,93,0.03,,SKC,0.16,VWS V14.01,2013-11-22 14:31:00,
2013-11-22 08:36:00,43.9,42.0,30.23,North,351,0.0,12.0,93,0.03,,SKC,0.16,VWS V14.01,2013-11-22 14:36:00,
2013-11-22 08:40:00,43.9,42.0,30.23,North,360,2.0,15.0,93,0.03,,SKC,0.16,VWS V14.01,2013-11-22 14:40:00,
2013-11-22 08:41:00,43.8,41.9,30.23,North,5,2.0,12.0,93,0.03,,SKC,0.16,VWS V14.01,2013-11-22 14:41:00,
2013-11-22 08:46:00,43.6,41.7,30.23,North,355,10.0,10.0,93,0.03,,SKC,0.16,VWS V14.01,2013-11-22 14:46:00,
2013-11-22 08:50:00,43.7,41.8,30.23,North,360,6.0,12.0,93,0.03,,SKC,0.16,VWS V14.01,2013-11-22 14:50:00,
2013-11-22 08:51:00,43.4,41.5,30.24,North,351,16.0,20.0,93,0.03,,SKC,0.16,VWS V14.01,2013-11-22 14:51:00,
2013-11-22 08:56:00,43.2,41.0,30.24,NNE,15,1.0,3.0,92,0.03,,SKC,0.16,VWS V14.01,2013-11-22 14:56:00,
2013-11-22 09:00:00,43.3,41.1,30.24,North,9,0.0,20.0,92,0.03,,SKC,0.16,VWS V14.01,2013-11-22 15:00:00,
2013-11-22 09:01:00,43.1,40.9,30.23,North,355,5.0,18.0,92,0.03,,SKC,0.16,VWS V14.01,2013-11-22 15:01:00,
2013-11-22 09:06:00,43.0,40.8,30.24,NNE,24,2.0,15.0,92,0.03,,SKC,0.16,VWS V14.01,2013-11-22 15:06:00,
2013-11-22 09:10:00,43.1,40.9,30.24,North,360,11.0,19.0,92,0.03,,SKC,0.16,VWS V14.01,2013-11-22 15:10:00,
2013-11-22 09:11:00,43.0,40.8,30.25,North,355,0.0,19.0,92,0.03,,SKC,0.16,VWS V14.01,2013-11-22 15:11:00,
2013-11-22 09:16:00,43.0,40.8,30.25,NNW,348,15.0,15.0,92,0.01,,SKC,0.16,VWS V14.01,2013-11-22 15:16:00,
2013-11-22 09:20:00,43.0,40.8,30.25,North,5,11.0,19.0,92,0.03,,SKC,0.16,VWS V14.01,2013-11-22 15:20:00,
2013-11-22 09:21:00,42.8,40.6,30.25,North,355,16.0,19.0,92,0.01,,SKC,0.16,VWS V14.01,2013-11-22 15:21:00,
2013-11-22 09:26:00,42.7,40.5,30.25,North,355,7.0,15.0,92,0.00,,SKC,0.16,VWS V14.01,2013-11-22 15:26:00,
2013-11-22 09:30:00,42.7,40.5,30.25,NNW,348,12.0,19.0,92,0.01,,SKC,0.16,VWS V14.01,2013-11-22 15:30:00,
2013-11-22 09:31:00,42.7,40.5,30.25,North,5,10.0,15.0,92,0.00,,SKC,0.16,VWS V14.01,2013-11-22 15:31:00,
2013-11-22 09:36:00,42.7,40.5,30.26,NNE,25,14.0,14.0,92,0.00,,SKC,0.16,VWS V14.01,2013-11-22 15:36:00,
2013-11-22 09:40:00,42.7,40.5,30.25,North,350,12.0,17.0,92,0.00,,SKC,0.16,VWS V14.01,2013-11-22 15:40:00,
2013-11-22 09:41:00,42.5,40.3,30.25,NNW,340,12.0,16.0,92,0.00,,SKC,0.16,VWS V14.01,2013-11-22 15:41:00,
2013-11-22 09:46:00,42.5,40.3,30.25,NNW,346,8.0,14.0,92,0.00,,SKC,0.16,VWS V14.01,2013-11-22 15:46:00,
2013-11-22 09:50:00,42.5,40.3,30.25,North,5,6.0,16.0,92,0.00,,SKC,0.16,VWS V14.01,2013-11-22 15:50:00,
2013-11-22 09:51:00,42.5,40.3,30.26,North,350,7.0,20.0,92,0.00,,SKC,0.16,VWS V14.01,2013-11-22 15:51:00,
2013-11-22 09:56:00,42.5,40.1,30.26,North,360,13.0,14.0,91,0.00,,SKC,0.16,VWS V14.01,2013-11-22 15:56:00,
2013-11-22 10:00:00,42.5,40.1,30.26,NNW,340,13.0,20.0,91,0.00,,SKC,0.16,VWS V14.01,2013-11-22 16:00:00,
2013-11-22 10:01:00,42.5,40.1,30.26,NNE,29,1.0,14.0,91,0.00,,SKC,0.16,VWS V14.01,2013-11-22 16:01:00,
2013-11-22 10:06:00,42.7,40.5,30.26,North,360,11.0,11.0,92,0.00,,SKC,0.16,VWS V14.01,2013-11-22 16:06:00,
2013-11-22 10:10:00,42.7,40.5,30.26,North,5,3.0,14.0,92,0.00,,SKC,0.16,VWS V14.01,2013-11-22 16:10:00,
2013-11-22 10:11:00,43.0,40.8,30.26,NNE,16,14.0,21.0,92,0.00,,SKC,0.16,VWS V14.01,2013-11-22 16:11:00,
2013-11-22 10:16:00,43.1,40.7,30.26,North,9,3.0,22.0,91,0.00,,SKC,0.16,VWS V14.01,2013-11-22 16:16:00,
2013-11-22 10:20:00,43.1,40.7,30.26,North,355,14.0,21.0,91,0.00,,SKC,0.16,VWS V14.01,2013-11-22 16:20:00,
2013-11-22 10:21:00,43.2,40.8,30.26,NNW,342,7.0,22.0,91,0.00,,SKC,0.16,VWS V14.01,2013-11-22 16:21:00,
2013-11-22 10:26:00,43.5,41.0,30.25,North,360,0.0,7.0,91,0.00,,SKC,0.16,VWS V14.01,2013-11-22 16:26:00,
2013-11-22 10:30:00,43.4,41.0,30.25,North,355,8.0,22.0,91,0.00,,SKC,0.16,VWS V14.01,2013-11-22 16:30:00,
2013-11-22 10:31:00,43.6,41.2,30.26,North,9,1.0,17.0,91,0.00,,SKC,0.16,VWS V14.01,2013-11-22 16:31:00,
2013-11-22 10:36:00,43.6,40.9,30.26,North,5,11.0,13.0,90,0.00,,SKC,0.16,VWS V14.01,2013-11-22 16:36:00,
2013-11-22 10:40:00,43.7,41.0,30.26,North,5,7.0,17.0,90,0.00,,SKC,0.16,VWS V14.01,2013-11-22 16:40:00,
2013-11-22 10:41:00,43.6,40.9,30.26,North,11,8.0,16.0,90,0.00,,SKC,0.16,VWS V14.01,2013-11-22 16:41:00,
2013-11-22 10:46:00,43.5,40.5,30.26,NNE,13,0.0,10.0,89,0.00,,SKC,0.16,VWS V14.01,2013-11-22 16:46:00,
2013-11-22 10:50:00,43.5,40.5,30.26,North,360,2.0,17.0,89,0.00,,SKC,0.16,VWS V14.01,2013-11-22 16:50:00,
2013-11-22 10:51:00,43.4,40.7,30.26,North,360,5.0,16.0,90,0.00,,SKC,0.16,VWS V14.01,2013-11-22 16:51:00,
2013-11-22 10:56:00,43.6,40.9,30.25,NNE,19,9.0,9.0,90,0.00,,SKC,0.16,VWS V14.01,2013-11-22 16:56:00,
2013-11-22 11:00:00,43.6,40.9,30.25,NNE,30,4.0,16.0,90,0.00,,SKC,0.16,VWS V14.01,2013-11-22 17:00:00,
2013-11-22 11:01:00,43.7,40.7,30.26,NE,46,3.0,18.0,89,0.00,,SKC,0.16,VWS V14.01,2013-11-22 17:01:00,
2013-11-22 11:06:00,43.7,40.7,30.27,North,5,4.0,11.0,89,0.00,,SKC,0.16,VWS V14.01,2013-11-22 17:06:00,
2013-11-22 11:10:00,43.7,40.7,30.26,North,9,2.0,18.0,89,0.00,,SKC,0.16,VWS V14.01,2013-11-22 17:10:00,
2013-11-22 11:11:00,43.6,40.3,30.27,North,5,6.0,13.0,88,0.00,,SKC,0.16,VWS V14.01,2013-11-22 17:11:00,
2013-11-22 11:16:00,43.4,40.1,30.26,NNW,339,14.0,17.0,88,0.00,,SKC,0.16,VWS V14.01,2013-11-22 17:16:00,
2013-11-22 11:20:00,43.4,40.1,30.26,North,350,5.0,16.0,88,0.00,,SKC,0.16,VWS V14.01,2013-11-22 17:20:00,
2013-11-22 11:21:00,43.3,40.0,30.26,NNE,12,13.0,17.0,88,0.00,,SKC,0.16,VWS V14.01,2013-11-22 17:21:00,
2013-11-22 11:26:00,43.2,39.9,30.27,North,350,1.0,9.0,88,0.00,,SKC,0.16,VWS V14.01,2013-11-22 17:26:00,
2013-11-22 11:30:00,43.2,39.9,30.27,North,355,1.0,17.0,88,0.00,,SKC,0.16,VWS V14.01,2013-11-22 17:30:00,
2013-11-22 11:31:00,43.0,39.7,30.27,NNW,340,3.0,17.0,88,0.00,,SKC,0.16,VWS V14.01,2013-11-22 17:31:00,
2013-11-22 11:36:00,42.9,39.6,30.27,NNW,340,0.0,14.0,88,0.00,,SKC,0.16,VWS V14.01,2013-11-22 17:36:00,
2013-11-22 11:40:00,42.9,39.6,30.27,NNW,329,5.0,17.0,88,0.00,,SKC,0.16,VWS V14.01,2013-11-22 17:40:00,
2013-11-22 11:41:00,42.9,39.6,30.28,North,360,10.0,14.0,88,0.00,,SKC,0.16,VWS V14.01,2013-11-22 17:41:00,
2013-11-22 11:46:00,43.0,39.7,30.27,North,355,2.0,16.0,88,0.00,,SKC,0.16,VWS V14.01,2013-11-22 17:46:00,
2013-11-22 11:50:00,43.0,39.7,30.27,North,10,7.0,15.0,88,0.00,,SKC,0.16,VWS V14.01,2013-11-22 17:50:00,
2013-11-22 11:51:00,43.0,40.0,30.27,North,10,8.0,16.0,89,0.00,,SKC,0.16,VWS V14.01,2013-11-22 17:51:00,
2013-11-22 11:56:00,43.1,40.1,30.26,NNW,336,0.0,12.0,89,0.00,,SKC,0.16,VWS V14.01,2013-11-22 17:56:00,
2013-11-22 12:00:00,43.1,40.1,30.26,North,351,3.0,16.0,89,0.00,,SKC,0.16,VWS V14.01,2013-11-22 18:00:00,
2013-11-22 12:01:00,43.2,40.2,30.26,North,360,11.0,16.0,89,0.00,,SKC,0.16,VWS V14.01,2013-11-22 18:01:00,
2013-11-22 12:06:00,43.1,39.8,30.27,North,355,0.0,2.0,88,0.00,,SKC,0.16,VWS V14.01,2013-11-22 18:06:00,
2013-11-22 12:10:00,43.1,39.8,30.27,North,355,1.0,16.0,88,0.00,,SKC,0.16,VWS V14.01,2013-11-22 18:10:00,
2013-11-22 12:11:00,43.0,39.7,30.27,North,9,0.0,16.0,88,0.00,,SKC,0.16,VWS V14.01,2013-11-22 18:11:00,
2013-11-22 12:16:00,43.1,39.8,30.25,NNW,348,0.0,18.0,88,0.00,,SKC,0.16,VWS V14.01,2013-11-22 18:16:00,
2013-11-22 12:20:00,43.0,39.7,30.26,North,5,12.0,19.0,88,0.00,,SKC,0.16,VWS V14.01,2013-11-22 18:20:00,
2013-11-22 12:21:00,43.0,39.7,30.26,NNE,12,1.0,18.0,88,0.00,,SKC,0.16,VWS V14.01,2013-11-22 18:21:00,
2013-11-22 12:26:00,43.0,39.4,30.25,NNE,20,4.0,16.0,87,0.00,,SKC,0.16,VWS V14.01,2013-11-22 18:26:00,
2013-11-22 12:30:00,43.0,39.7,30.25,NNW,344,5.0,18.0,88,0.00,,SKC,0.16,VWS V14.01,2013-11-22 18:30:00,
2013-11-22 12:31:00,43.0,39.7,30.25,North,5,10.0,16.0,88,0.00,,SKC,0.16,VWS V14.01,2013-11-22 18:31:00,
2013-11-22 12:36:00,43.0,39.7,30.25,North,355,5.0,8.0,88,0.00,,SKC,0.16,VWS V14.01,2013-11-22 18:36:00,
2013-11-22 12:40:00,43.0,39.4,30.25,North,350,2.0,17.0,87,0.00,,SKC,0.16,VWS V14.01,2013-11-22 18:40:00,
2013-11-22 12:41:00,43.0,39.4,30.25,NNE,26,1.0,13.0,87,0.00,,SKC,0.16,VWS V14.01,2013-11-22 18:41:00,
2013-11-22 12:46:00,43.0,39.4,30.24,North,360,11.0,11.0,87,0.00,,SKC,0.16,VWS V14.01,2013-11-22 18:46:00,
2013-11-22 12:50:00,43.0,39.4,30.24,North,355,0.0,15.0,87,0.00,,SKC,0.16,VWS V14.01,2013-11-22 18:50:00,
2013-11-22 12:51:00,43.0,39.4,30.24,NNW,338,2.0,15.0,87,0.00,,SKC,0.16,VWS V14.01,2013-11-22 18:51:00,
2013-11-22 12:56:00,42.9,39.3,30.24,North,360,1.0,7.0,87,0.00,,SKC,0.16,VWS V14.01,2013-11-22 18:56:00,
2013-11-22 13:00:00,43.0,39.4,30.24,North,349,7.0,15.0,87,0.00,,SKC,0.16,VWS V14.01,2013-11-22 19:00:00,
2013-11-22 13:01:00,42.9,39.6,30.24,North,360,0.0,13.0,88,0.00,,SKC,0.16,VWS V14.01,2013-11-22 19:01:00,
2013-11-22 13:06:00,42.8,39.5,30.24,North,351,4.0,8.0,88,0.00,,SKC,0.16,VWS V14.01,2013-11-22 19:06:00,
2013-11-22 13:10:00,42.7,39.4,30.24,North,355,0.0,13.0,88,0.00,,SKC,0.16,VWS V14.01,2013-11-22 19:10:00,
2013-11-22 13:15:00,42.3,38.7,30.24,NNE,31,6.0,11.0,87,0.00,,SKC,0.16,VWS V14.01,2013-11-22 19:15:00,
2013-11-22 13:20:00,41.9,38.3,30.24,North,350,0.0,17.0,87,0.00,,SKC,0.16,VWS V14.01,2013-11-22 19:20:00,
2013-11-22 13:25:00,41.7,38.4,30.24,North,355,9.0,14.0,88,0.00,,SKC,0.16,VWS V14.01,2013-11-22 19:25:00,
2013-11-22 13:30:00,41.5,38.5,30.24,North,355,0.0,16.0,89,0.00,,SKC,0.16,VWS V14.01,2013-11-22 19:30:00,
2013-11-22 13:35:00,41.5,38.5,30.24,North,9,0.0,4.0,89,0.00,,SKC,0.16,VWS V14.01,2013-11-22 19:35:00,
2013-11-22 13:40:00,41.6,38.6,30.24,NNW,347,1.0,11.0,89,0.00,,SKC,0.16,VWS V14.01,2013-11-22 19:40:00,
2013-11-22 13:45:00,41.6,38.9,30.23,North,355,4.0,6.0,90,0.00,,SKC,0.16,VWS V14.01,2013-11-22 19:45:00,
2013-11-22 13:50:00,41.5,38.5,30.23,NW,325,0.0,17.0,89,0.00,,SKC,0.16,VWS V14.01,2013-11-22 19:50:00,
2013-11-22 13:55:00,41.3,38.3,30.23,North,5,6.0,12.0,89,0.00,,SKC,0.16,VWS V14.01,2013-11-22 19:55:00,
2013-11-22 14:00:00,41.2,38.2,30.24,North,355,2.0,17.0,89,0.00,,SKC,0.16,VWS V14.01,2013-11-22 20:00:00,
2013-11-22 14:05:00,41.2,38.2,30.24,NNW,348,0.0,12.0,89,0.00,,SKC,0.16,VWS V14.01,2013-11-22 20:05:00,
2013-11-22 14:10:00,41.1,37.8,30.24,NNW,338,8.0,18.0,88,0.00,,SKC,0.16,VWS V14.01,2013-11-22 20:10:00,
2013-11-22 14:15:00,40.9,37.6,30.24,NNW,336,1.0,12.0,88,0.00,,SKC,0.16,VWS V14.01,2013-11-22 20:15:00,
2013-11-22 14:20:00,40.7,37.4,30.24,NNW,346,0.0,15.0,88,0.00,,SKC,0.16,VWS V14.01,2013-11-22 20:20:00,
2013-11-22 14:25:00,40.7,37.7,30.23,North,355,3.0,12.0,89,0.00,,SKC,0.16,VWS V14.01,2013-11-22 20:25:00,
2013-11-22 14:30:00,40.6,37.3,30.23,North,355,0.0,12.0,88,0.00,,SKC,0.16,VWS V14.01,2013-11-22 20:30:00,
2013-11-22 14:35:00,40.6,37.6,30.24,NNW,346,3.0,6.0,89,0.00,,SKC,0.16,VWS V14.01,2013-11-22 20:35:00,
2013-11-22 14:40:00,40.5,37.2,30.24,North,350,8.0,15.0,88,0.00,,SKC,0.16,VWS V14.01,2013-11-22 20:40:00,
2013-11-22 14:45:00,40.5,37.2,30.24,North,355,0.0,4.0,88,0.00,,SKC,0.16,VWS V14.01,2013-11-22 20:45:00,
2013-11-22 14:50:00,40.5,37.5,30.24,North,360,5.0,13.0,89,0.00,,SKC,0.16,VWS V14.01,2013-11-22 20:50:00,
2013-11-22 14:55:00,40.5,37.5,30.24,NNW,342,1.0,4.0,89,0.00,,SKC,0.16,VWS V14.01,2013-11-22 20:55:00,
2013-11-22 15:00:00,40.4,37.4,30.24,NW,310,7.0,14.0,89,0.00,,SKC,0.16,VWS V14.01,2013-11-22 21:00:00,
2013-11-22 15:05:00,40.3,37.3,30.24,North,9,2.0,9.0,89,0.00,,SKC,0.16,VWS V14.01,2013-11-22 21:05:00,
2013-11-22 15:10:00,40.0,36.7,30.24,North,355,0.0,19.0,88,0.00,,SKC,0.16,VWS V14.01,2013-11-22 21:10:00,
2013-11-22 15:15:00,39.9,36.9,30.24,NNW,345,0.0,3.0,89,0.00,,SKC,0.16,VWS V14.01,2013-11-22 21:15:00,
2013-11-22 15:20:00,39.8,36.8,30.25,North,11,10.0,14.0,89,0.00,,SKC,0.16,VWS V14.01,2013-11-22 21:20:00,
2013-11-22 15:25:00,39.8,36.8,30.25,NNW,333,1.0,6.0,89,0.00,,SKC,0.16,VWS V14.01,2013-11-22 21:25:00,
2013-11-22 15:30:00,39.7,36.7,30.25,NNW,348,4.0,15.0,89,0.00,,SKC,0.16,VWS V14.01,2013-11-22 21:30:00,
2013-11-22 15:35:00,39.6,36.6,30.25,North,9,5.0,5.0,89,0.00,,SKC,0.16,VWS V14.01,2013-11-22 21:35:00,
2013-11-22 15:40:00,39.6,36.6,30.25,NNW,342,9.0,14.0,89,0.00,,SKC,0.16,VWS V14.01,2013-11-22 21:40:00,
2013-11-22 15:45:00,39.7,36.7,30.25,NNW,332,8.0,12.0,89,0.00,,SKC,0.16,VWS V14.01,2013-11-22 21:45:00,
2013-11-22 15:50:00,39.7,36.7,30.25,North,360,0.0,14.0,89,0.00,,SKC,0.16,VWS V14.01,2013-11-22 21:50:00,
2013-11-22 15:55:00,39.6,36.6,30.26,North,360,1.0,2.0,89,0.00,,SKC,0.16,VWS V14.01,2013-11-22 21:55:00,
2013-11-22 16:00:00,39.6,36.6,30.27,North,355,0.0,14.0,89,0.00,,SKC,0.16,VWS V14.01,2013-11-22 22:00:00,
2013-11-22 16:05:00,39.6,36.6,30.27,North,350,2.0,9.0,89,0.00,,SKC,0.16,VWS V14.01,2013-11-22 22:05:00,
2013-11-22 16:10:00,39.7,36.7,30.27,North,360,8.0,17.0,89,0.00,,SKC,0.16,VWS V14.01,2013-11-22 22:10:00,
2013-11-22 16:15:00,39.6,36.6,30.27,North,350,0.0,0.0,89,0.00,,SKC,0.16,VWS V14.01,2013-11-22 22:15:00,
2013-11-22 16:20:00,39.6,36.3,30.27,North,355,1.0,10.0,88,0.00,,SKC,0.16,VWS V14.01,2013-11-22 22:20:00,
2013-11-22 16:25:00,39.5,36.5,30.27,North,350,0.0,3.0,89,0.00,,SKC,0.16,VWS V14.01,2013-11-22 22:25:00,
2013-11-22 16:30:00,39.4,36.4,30.27,North,351,0.0,9.0,89,0.00,,SKC,0.16,VWS V14.01,2013-11-22 22:30:00,
2013-11-22 16:35:00,39.2,36.0,30.27,NNW,342,14.0,14.0,88,0.00,,SKC,0.16,VWS V14.01,2013-11-22 22:35:00,
2013-11-22 16:40:00,39.0,35.8,30.27,NNW,342,12.0,14.0,88,0.00,,SKC,0.16,VWS V14.01,2013-11-22 22:40:00,
2013-11-22 16:45:00,38.8,35.8,30.27,North,351,0.0,7.0,89,0.00,,SKC,0.16,VWS V14.01,2013-11-22 22:45:00,
2013-11-22 16:50:00,38.8,35.8,30.27,North,355,8.0,11.0,89,0.00,,SKC,0.16,VWS V14.01,2013-11-22 22:50:00,
2013-11-22 16:55:00,38.7,35.7,30.28,NNW,335,0.0,11.0,89,0.00,,SKC,0.16,VWS V14.01,2013-11-22 22:55:00,
2013-11-22 17:00:00,38.7,35.7,30.28,North,10,4.0,15.0,89,0.00,,SKC,0.16,VWS V14.01,2013-11-22 23:00:00,
2013-11-22 17:05:00,38.6,35.6,30.28,North,5,7.0,7.0,89,0.00,,SKC,0.16,VWS V14.01,2013-11-22 23:05:00,
2013-11-22 17:10:00,38.6,35.9,30.28,North,9,2.0,14.0,90,0.01,,SKC,0.17,VWS V14.01,2013-11-22 23:10:00,
2013-11-22 17:15:00,38.6,35.9,30.29,North,5,15.0,15.0,90,0.02,,SKC,0.18,VWS V14.01,2013-11-22 23:15:00,
2013-11-22 17:20:00,38.5,35.8,30.29,North,355,0.0,15.0,90,0.02,,SKC,0.18,VWS V14.01,2013-11-22 23:20:00,
2013-11-22 17:25:00,38.4,36.0,30.29,North,355,0.0,0.0,91,0.02,,SKC,0.18,VWS V14.01,2013-11-22 23:25:00,
2013-11-22 17:30:00,38.4,36.0,30.29,NNW,331,5.0,13.0,91,0.02,,SKC,0.18,VWS V14.01,2013-11-22 23:30:00,
2013-11-22 17:35:00,38.4,36.0,30.30,NNW,344,0.0,0.0,91,0.02,,SKC,0.18,VWS V14.01,2013-11-22 23:35:00,
2013-11-22 17:40:00,38.3,35.9,30.31,North,351,8.0,12.0,91,0.02,,SKC,0.18,VWS V14.01,2013-11-22 23:40:00,
2013-11-22 17:45:00,38.1,35.7,30.31,NNW,342,6.0,8.0,91,0.02,,SKC,0.18,VWS V14.01,2013-11-22 23:45:00,
2013-11-22 17:50:00,38.0,35.6,30.31,NNW,327,9.0,15.0,91,0.02,,SKC,0.18,VWS V14.01,2013-11-22 23:50:00,
2013-11-22 17:55:00,37.9,35.5,30.31,NNW,346,0.0,0.0,91,0.02,,SKC,0.18,VWS V14.01,2013-11-22 23:55:00,
2013-11-22 18:00:00,37.8,35.4,30.30,North,5,10.0,14.0,91,0.02,,SKC,0.18,VWS V14.01,2013-11-23 00:00:00,
2013-11-22 18:05:00,37.5,35.1,30.30,North,355,1.0,5.0,91,0.02,,SKC,0.18,VWS V14.01,2013-11-23 00:05:00,
2013-11-22 18:10:00,37.3,34.9,30.30,North,360,7.0,17.0,91,0.02,,SKC,0.18,VWS V14.01,2013-11-23 00:10:00,
2013-11-22 18:15:00,37.1,34.7,30.31,NW,307,14.0,15.0,91,0.00,,SKC,0.18,VWS V14.01,2013-11-23 00:15:00,
2013-11-22 18:20:00,37.1,34.7,30.31,North,355,5.0,15.0,91,0.00,,SKC,0.18,VWS V14.01,2013-11-23 00:20:00,
2013-11-22 18:25:00,37.0,34.6,30.32,NNW,328,5.0,8.0,91,0.00,,SKC,0.18,VWS V14.01,2013-11-23 00:25:00,
2013-11-22 18:30:00,36.9,34.5,30.31,North,5,5.0,15.0,91,0.00,,SKC,0.18,VWS V14.01,2013-11-23 00:30:00,
2013-11-22 18:35:00,36.8,34.4,30.31,North,5,7.0,12.0,91,0.00,,SKC,0.18,VWS V14.01,2013-11-23 00:35:00,
2013-11-22 18:40:00,36.8,34.4,30.31,North,5,1.0,13.0,91,0.00,,SKC,0.18,VWS V14.01,2013-11-23 00:40:00,
2013-11-22 18:45:00,36.8,34.4,30.31,North,355,6.0,7.0,91,0.00,,SKC,0.18,VWS V14.01,2013-11-23 00:45:00,
2013-11-22 18:50:00,36.7,34.3,30.31,NE,55,5.0,19.0,91,0.00,,SKC,0.18,VWS V14.01,2013-11-23 00:50:00,
2013-11-22 18:55:00,36.7,34.3,30.31,North,350,0.0,6.0,91,0.00,,SKC,0.18,VWS V14.01,2013-11-23 00:55:00,
2013-11-22 19:00:00,36.7,34.3,30.31,NNW,346,10.0,17.0,91,0.01,,SKC,0.19,VWS V14.01,2013-11-23 01:00:00,
2013-11-22 19:05:00,36.7,34.3,30.31,North,5,0.0,10.0,91,0.01,,SKC,0.19,VWS V14.01,2013-11-23 01:05:00,
2013-11-22 19:10:00,36.6,34.2,30.32,NNE,13,8.0,15.0,91,0.02,,SKC,0.20,VWS V14.01,2013-11-23 01:10:00,
2013-11-22 19:15:00,36.6,34.2,30.31,NNE,13,10.0,11.0,91,0.02,,SKC,0.20,VWS V14.01,2013-11-23 01:15:00,
2013-11-22 19:20:00,36.5,34.1,30.31,NNW,340,3.0,17.0,91,0.02,,SKC,0.20,VWS V14.01,2013-11-23 01:20:00,
2013-11-22 19:25:00,36.5,34.1,30.31,North,355,2.0,11.0,91,0.02,,SKC,0.20,VWS V14.01,2013-11-23 01:25:00,
2013-11-22 19:30:00,36.5,34.1,30.31,NNW,344,0.0,13.0,91,0.02,,SKC,0.20,VWS V14.01,2013-11-23 01:30:00,
2013-11-22 19:35:00,36.5,34.1,30.33,North,5,0.0,0.0,91,0.02,,SKC,0.20,VWS V14.01,2013-11-23 01:35:00,
2013-11-22 19:40:00,36.5,34.1,30.32,North,5,5.0,13.0,91,0.02,,SKC,0.20,VWS V14.01,2013-11-23 01:40:00,
2013-11-22 19:45:00,36.5,34.1,30.33,North,355,0.0,0.0,91,0.02,,SKC,0.20,VWS V14.01,2013-11-23 01:45:00,
2013-11-22 19:50:00,36.6,34.2,30.32,NNW,346,4.0,13.0,91,0.02,,SKC,0.20,VWS V14.01,2013-11-23 01:50:00,
2013-11-22 19:55:00,36.6,34.2,30.32,NNW,340,6.0,11.0,91,0.02,,SKC,0.20,VWS V14.01,2013-11-23 01:55:00,
2013-11-22 20:00:00,36.6,34.2,30.33,North,360,0.0,11.0,91,0.02,,SKC,0.20,VWS V14.01,2013-11-23 02:00:00,
2013-11-22 20:05:00,36.7,34.3,30.33,North,355,0.0,3.0,91,0.01,,SKC,0.20,VWS V14.01,2013-11-23 02:05:00,
2013-11-22 20:10:00,36.8,34.7,30.33,North,5,4.0,13.0,92,0.01,,SKC,0.20,VWS V14.01,2013-11-23 02:10:00,
2013-11-22 20:15:00,36.8,34.4,30.33,North,351,2.0,14.0,91,0.01,,SKC,0.20,VWS V14.01,2013-11-23 02:15:00,
2013-11-22 20:20:00,36.8,34.4,30.32,NW,321,7.0,12.0,91,0.00,,SKC,0.20,VWS V14.01,2013-11-23 02:20:00,
2013-11-22 20:25:00,36.8,34.4,30.32,North,5,11.0,14.0,91,0.00,,SKC,0.20,VWS V14.01,2013-11-23 02:25:00,
2013-11-22 20:30:00,36.9,34.5,30.33,North,355,6.0,16.0,91,0.00,,SKC,0.20,VWS V14.01,2013-11-23 02:30:00,
2013-11-22 20:35:00,36.9,34.5,30.34,North,360,10.0,16.0,91,0.00,,SKC,0.20,VWS V14.01,2013-11-23 02:35:00,
2013-11-22 20:40:00,36.9,34.5,30.33,North,350,1.0,12.0,91,0.00,,SKC,0.20,VWS V14.01,2013-11-23 02:40:00,
2013-11-22 20:45:00,36.9,34.8,30.33,NW,324,0.0,13.0,92,0.00,,SKC,0.20,VWS V14.01,2013-11-23 02:45:00,
2013-11-22 20:50:00,36.9,34.8,30.34,NNW,336,3.0,12.0,92,0.00,,SKC,0.20,VWS V14.01,2013-11-23 02:50:00,
2013-11-22 20:55:00,36.8,34.4,30.34,NNW,346,4.0,12.0,91,0.00,,SKC,0.20,VWS V14.01,2013-11-23 02:55:00,
2013-11-22 21:00:00,36.8,34.4,30.34,NNW,331,5.0,15.0,91,0.00,,SKC,0.20,VWS V14.01,2013-11-23 03:00:00,
2013-11-22 21:05:00,36.7,34.3,30.34,NNW,346,0.0,15.0,91,0.00,,SKC,0.20,VWS V14.01,2013-11-23 03:05:00,
2013-11-22 21:10:00,36.6,34.2,30.35,North,360,1.0,13.0,91,0.00,,SKC,0.20,VWS V14.01,2013-11-23 03:10:00,
2013-11-22 21:15:00,36.6,34.2,30.35,North,350,1.0,13.0,91,0.00,,SKC,0.20,VWS V14.01,2013-11-23 03:15:00,
2013-11-22 21:20:00,36.6,34.2,30.35,NNW,347,3.0,6.0,91,0.00,,SKC,0.20,VWS V14.01,2013-11-23 03:20:00,
2013-11-22 21:25:00,36.6,34.2,30.35,North,351,3.0,9.0,91,0.00,,SKC,0.20,VWS V14.01,2013-11-23 03:25:00,
2013-11-22 21:30:00,36.6,34.2,30.35,NNW,346,3.0,11.0,91,0.00,,SKC,0.20,VWS V14.01,2013-11-23 03:30:00,
2013-11-22 21:35:00,36.6,34.5,30.35,NNW,348,3.0,11.0,92,0.00,,SKC,0.20,VWS V14.01,2013-11-23 03:35:00,
2013-11-22 21:40:00,36.6,34.5,30.35,North,350,3.0,10.0,92,0.00,,SKC,0.20,VWS V14.01,2013-11-23 03:40:00,
2013-11-22 21:45:00,36.6,34.5,30.36,North,351,0.0,11.0,92,0.00,,SKC,0.20,VWS V14.01,2013-11-23 03:45:00,
2013-11-22 21:50:00,36.7,34.6,30.36,NNW,344,4.0,9.0,92,0.00,,SKC,0.20,VWS V14.01,2013-11-23 03:50:00,
2013-11-22 21:55:00,36.7,34.6,30.36,North,349,0.0,11.0,92,0.00,,SKC,0.20,VWS V14.01,2013-11-23 03:55:00,
2013-11-22 22:00:00,36.7,34.3,30.36,NNW,345,0.0,13.0,91,0.00,,SKC,0.20,VWS V14.01,2013-11-23 04:00:00,
2013-11-22 22:05:00,36.7,34.6,30.36,NNW,348,0.0,13.0,92,0.00,,SKC,0.20,VWS V14.01,2013-11-23 04:05:00,
2013-11-22 22:10:00,36.7,34.3,30.37,NNW,346,0.0,13.0,91,0.00,,SKC,0.20,VWS V14.01,2013-11-23 04:10:00,
2013-11-22 22:15:00,36.7,34.6,30.37,NNW,346,0.0,13.0,92,0.00,,SKC,0.20,VWS V14.01,2013-11-23 04:15:00,
2013-11-22 22:20:00,36.6,34.2,30.37,NNW,346,0.0,7.0,91,0.00,,SKC,0.20,VWS V14.01,2013-11-23 04:20:00,
2013-11-22 22:25:00,36.7,34.6,30.38,NNW,346,0.0,9.0,92,0.00,,SKC,0.20,VWS V14.01,2013-11-23 04:25:00,
2013-11-22 22:30:00,36.7,34.6,30.37,NNW,343,0.0,8.0,92,0.00,,SKC,0.20,VWS V14.01,2013-11-23 04:30:00,
2013-11-22 22:35:00,36.7,34.6,30.37,North,355,0.0,8.0,92,0.00,,SKC,0.20,VWS V14.01,2013-11-23 04:35:00,
2013-11-22 22:40:00,36.8,34.7,30.36,NNW,339,0.0,12.0,92,0.00,,SKC,0.20,VWS V14.01,2013-11-23 04:40:00,
2013-11-22 22:45:00,36.8,34.7,30.37,NNW,332,3.0,12.0,92,0.00,,SKC,0.20,VWS V14.01,2013-11-23 04:45:00,
2013-11-22 22:50:00,36.8,34.4,30.37,North,355,3.0,11.0,91,0.00,,SKC,0.20,VWS V14.01,2013-11-23 04:50:00,
2013-11-22 22:55:00,36.8,34.4,30.37,NNW,347,2.0,11.0,91,0.00,,SKC,0.20,VWS V14.01,2013-11-23 04:55:00,
2013-11-22 23:00:00,36.8,34.4,30.37,NNW,342,0.0,13.0,91,0.00,,SKC,0.20,VWS V14.01,2013-11-23 05:00:00,
2013-11-22 23:01:00,36.8,34.4,30.37,NNW,342,3.0,13.0,91,0.00,,SKC,0.20,VWS V14.01,2013-11-23 05:01:00,
2013-11-22 23:06:00,36.8,34.4,30.36,North,360,4.0,9.0,91,0.00,,SKC,0.20,VWS V14.01,2013-11-23 05:06:00,
2013-11-22 23:10:00,36.8,34.4,30.37,NNW,338,0.0,13.0,91,0.00,,SKC,0.20,VWS V14.01,2013-11-23 05:10:00,
2013-11-22 23:11:00,36.8,34.4,30.36,North,351,1.0,12.0,91,0.00,,SKC,0.20,VWS V14.01,2013-11-23 05:11:00,
2013-11-22 23:16:00,36.8,34.4,30.36,North,350,0.0,6.0,91,0.00,,SKC,0.20,VWS V14.01,2013-11-23 05:16:00,
2013-11-22 23:20:00,36.8,34.4,30.36,NNW,346,6.0,12.0,91,0.00,,SKC,0.20,VWS V14.01,2013-11-23 05:20:00,
2013-11-22 23:21:00,36.8,34.4,30.36,NNW,347,0.0,10.0,91,0.00,,SKC,0.20,VWS V14.01,2013-11-23 05:21:00,
2013-11-22 23:26:00,36.8,34.4,30.36,NNW,344,3.0,11.0,91,0.00,,SKC,0.20,VWS V14.01,2013-11-23 05:26:00,
2013-11-22 23:30:00,36.8,34.4,30.36,NNW,342,0.0,14.0,91,0.00,,SKC,0.20,VWS V14.01,2013-11-23 05:30:00,
2013-11-22 23:31:00,36.8,34.4,30.36,North,355,0.0,14.0,91,0.00,,SKC,0.20,VWS V14.01,2013-11-23 05:31:00,
2013-11-22 23:36:00,36.8,34.4,30.36,NNW,348,1.0,7.0,91,0.00,,SKC,0.20,VWS V14.01,2013-11-23 05:36:00,
2013-11-22 23:40:00,36.8,34.4,30.36,North,355,0.0,14.0,91,0.00,,SKC,0.20,VWS V14.01,2013-11-23 05:40:00,
2013-11-22 23:41:00,36.8,34.4,30.36,North,350,7.0,13.0,91,0.00,,SKC,0.20,VWS V14.01,2013-11-23 05:41:00,
2013-11-22 23:46:00,36.9,34.5,30.36,North,350,4.0,4.0,91,0.00,,SKC,0.20,VWS V14.01,2013-11-23 05:46:00,
2013-11-22 23:50:00,36.9,34.5,30.36,North,350,0.0,13.0,91,0.00,,SKC,0.20,VWS V14.01,2013-11-23 05:50:00,
2013-11-22 23:51:00,36.9,34.8,30.35,NNW,348,4.0,11.0,92,0.00,,SKC,0.20,VWS V14.01,2013-11-23 05:51:00,
2013-11-22 23:56:00,37.0,34.6,30.35,North,351,0.0,5.0,91,0.00,,SKC,0.00,VWS V14.01,2013-11-23 05:56:00,